Rehovot, Israel
Current Conditions -  °F | °C
As of 6:50 AM on Friday 31 Oct 2014 (Local Time) from LLBG Reporting Station
Light Rain Light Rain  
Wind Chill: 63°   Ceiling: 3500
Heat Index: 63°   Visibility: 6mi
Dew Point: 61°   Wind: 8mph
Humidity: 94%   Direction: 140°SE
Pressure: 29.91"   Gusts: NA
Location:  31.89°N, 34.8°E
Report Text: LLBG 310350Z 14007KT 9999 -RA FEW025 BKN035 17/16 Q1013 RERATEMPO 6000 SHRA FEW025CB
Loading
Personal Weather Stations






























Interactive Weather Map
Tropical Storm Tracking
New forecast layout! Learn more

10-Day Weather Forecast

Advertisements
Track Severe Weather on mobile